EAG5512 LPPT-OMDB
Flight info
| Callsign | EAG5512 |
|---|---|
| Flight time | N/A |
| Altitude | 34000 |
| Route | ORVED DCT RODAP DCT RAKOD DCT UREDI/N0472F360 DCT NVS/N0476F350 DCT NANDO/N0474F360 T257 RETBA/N0478F350 DCT MOPIR DCT LASPO DCT LUXUR UM134 ANB UG6 DIMAO UL874 LOBNA/N0475F370 UL874 OMENI DCT SUDIK DCT BONAR M980 LOSUL M855 MMA P751 DASUM Y234 FYM M872 BDB Y214 KODIS/N0477F390 Y214 RAPMA DCT KUVSO DCT KATIT DCT PEKEM M628 RIGIL G783 ELUDA/N0489F350 G783 ASPED Q308 KIPOK Q568 IMPED |
| Aircraft | A346/H-SDE2E3FGHIJ3J4J5M1RWXY/LB1D1 |
Departure
| Time | 2026-05-07 22:24 |
|---|---|
| Airport | Lisbon Humberto Delgado Airport (LPPT) |
Arrival
| Time | N/A |
|---|---|
| Airport | Dubai International Airport (OMDB) |
| Time | Latitude | Longitude | Altitude | Speed | Heading |
|---|---|---|---|---|---|
| 2026-05-07 21:56 | 38.77547 | -9.13195 | 346 ft | 0 kts | 78° |
| 2026-05-07 22:13 | 38.77544 | -9.13212 | 355 ft | 4 kts | 78° |
| 2026-05-07 22:14 | 38.77539 | -9.13246 | 352 ft | 4 kts | 78° |
| 2026-05-07 22:14 | 38.77533 | -9.13278 | 354 ft | 3 kts | 78° |
| 2026-05-07 22:14 | 38.77532 | -9.13305 | 351 ft | 4 kts | 106° |
| 2026-05-07 22:14 | 38.77537 | -9.13317 | 347 ft | 4 kts | 153° |
| 2026-05-07 22:15 | 38.77555 | -9.13320 | 357 ft | 4 kts | 181° |
| 2026-05-07 22:15 | 38.77581 | -9.13320 | 357 ft | 4 kts | 173° |
| 2026-05-07 22:15 | 38.77590 | -9.13322 | 355 ft | 0 kts | 168° |
| 2026-05-07 22:18 | 38.77540 | -9.13308 | 355 ft | 16 kts | 168° |
| 2026-05-07 22:18 | 38.77350 | -9.13292 | 354 ft | 9 kts | 224° |
| 2026-05-07 22:18 | 38.77320 | -9.13366 | 358 ft | 9 kts | 254° |
| 2026-05-07 22:19 | 38.77307 | -9.13439 | 352 ft | 8 kts | 258° |
| 2026-05-07 22:19 | 38.77298 | -9.13497 | 363 ft | 6 kts | 258° |
| 2026-05-07 22:19 | 38.77282 | -9.13584 | 357 ft | 12 kts | 257° |
| 2026-05-07 22:19 | 38.77265 | -9.13692 | 366 ft | 12 kts | 258° |
| 2026-05-07 22:20 | 38.77250 | -9.13778 | 361 ft | 6 kts | 257° |
| 2026-05-07 22:20 | 38.77215 | -9.13843 | 366 ft | 11 kts | 216° |
| 2026-05-07 22:20 | 38.77138 | -9.13895 | 362 ft | 14 kts | 203° |
| 2026-05-07 22:20 | 38.77040 | -9.13947 | 362 ft | 16 kts | 203° |
| 2026-05-07 22:21 | 38.76925 | -9.14008 | 362 ft | 20 kts | 202° |
| 2026-05-07 22:21 | 38.76792 | -9.14080 | 357 ft | 20 kts | 204° |
| 2026-05-07 22:21 | 38.76664 | -9.14150 | 351 ft | 17 kts | 201° |
| 2026-05-07 22:21 | 38.76613 | -9.14188 | 350 ft | 0 kts | 224° |
| 2026-05-07 22:22 | 38.76611 | -9.14190 | 354 ft | 1 kts | 226° |
| 2026-05-07 22:22 | 38.76601 | -9.14212 | 348 ft | 4 kts | 252° |
| 2026-05-07 22:22 | 38.76603 | -9.14267 | 351 ft | 9 kts | 282° |
| 2026-05-07 22:22 | 38.76646 | -9.14362 | 354 ft | 12 kts | 338° |
| 2026-05-07 22:23 | 38.76752 | -9.14329 | 357 ft | 33 kts | 21° |
| 2026-05-07 22:23 | 38.77212 | -9.14085 | 364 ft | 107 kts | 22° |
| 2026-05-07 22:23 | 38.78103 | -9.13610 | 377 ft | 168 kts | 21° |
| 2026-05-07 22:23 | 38.79314 | -9.12945 | 589 ft | 203 kts | 24° |
| 2026-05-07 22:24 | 38.80577 | -9.12055 | 1365 ft | 206 kts | 30° |
| 2026-05-07 22:24 | 38.81766 | -9.11116 | 2389 ft | 197 kts | 30° |
| 2026-05-07 22:24 | 38.82947 | -9.10214 | 2906 ft | 202 kts | 27° |
| 2026-05-07 22:24 | 38.84220 | -9.09299 | 3202 ft | 217 kts | 26° |
| 2026-05-07 22:25 | 38.85561 | -9.08284 | 3518 ft | 233 kts | 38° |
| 2026-05-07 22:25 | 38.86547 | -9.06530 | 3791 ft | 254 kts | 63° |
| 2026-05-07 22:25 | 38.87279 | -9.04379 | 4138 ft | 270 kts | 66° |
| 2026-05-07 22:25 | 38.88013 | -9.02110 | 4694 ft | 277 kts | 66° |
| 2026-05-07 22:26 | 38.88787 | -8.99821 | 5385 ft | 279 kts | 65° |
| 2026-05-07 22:26 | 38.89589 | -8.97548 | 6092 ft | 281 kts | 65° |
| 2026-05-07 22:26 | 38.90417 | -8.95264 | 6779 ft | 283 kts | 65° |
| 2026-05-07 22:26 | 38.91266 | -8.92959 | 7466 ft | 286 kts | 65° |
| 2026-05-07 22:27 | 38.92127 | -8.90640 | 8149 ft | 289 kts | 65° |
| 2026-05-07 22:27 | 38.93002 | -8.88297 | 8818 ft | 292 kts | 65° |
| 2026-05-07 22:27 | 38.93877 | -8.85962 | 9493 ft | 294 kts | 66° |
| 2026-05-07 22:27 | 38.94769 | -8.83578 | 10141 ft | 298 kts | 66° |
| 2026-05-07 22:28 | 38.95684 | -8.81131 | 10561 ft | 310 kts | 66° |
| 2026-05-07 22:28 | 38.96644 | -8.78565 | 10861 ft | 326 kts | 66° |
| 2026-05-07 22:28 | 38.97648 | -8.75879 | 11181 ft | 339 kts | 66° |
| 2026-05-07 22:28 | 38.98692 | -8.73087 | 11519 ft | 354 kts | 66° |
| 2026-05-07 22:29 | 38.99782 | -8.70171 | 11803 ft | 369 kts | 66° |
| 2026-05-07 22:29 | 39.00920 | -8.67125 | 12071 ft | 384 kts | 66° |
| 2026-05-07 22:29 | 39.02097 | -8.63969 | 12420 ft | 395 kts | 66° |
| 2026-05-07 22:29 | 39.03292 | -8.60768 | 12978 ft | 399 kts | 66° |
| 2026-05-07 22:30 | 39.04496 | -8.57536 | 13535 ft | 402 kts | 66° |
| 2026-05-07 22:30 | 39.05715 | -8.54262 | 14038 ft | 406 kts | 66° |
| 2026-05-07 22:30 | 39.06938 | -8.50973 | 14482 ft | 410 kts | 66° |
| 2026-05-07 22:30 | 39.08178 | -8.47632 | 14940 ft | 413 kts | 65° |
| 2026-05-07 22:31 | 39.09434 | -8.44284 | 15358 ft | 416 kts | 65° |
| 2026-05-07 22:31 | 39.10730 | -8.40928 | 15739 ft | 420 kts | 64° |
| 2026-05-07 22:31 | 39.12044 | -8.37546 | 16159 ft | 424 kts | 64° |
| 2026-05-07 22:31 | 39.13370 | -8.34124 | 16716 ft | 428 kts | 64° |
| 2026-05-07 22:32 | 39.14704 | -8.30671 | 17297 ft | 431 kts | 64° |
| 2026-05-07 22:32 | 39.16042 | -8.27200 | 17856 ft | 435 kts | 64° |
| 2026-05-07 22:32 | 39.17395 | -8.23679 | 18373 ft | 439 kts | 64° |
| 2026-05-07 22:32 | 39.18738 | -8.20183 | 18883 ft | 443 kts | 64° |
| 2026-05-07 22:33 | 39.20109 | -8.16605 | 19406 ft | 446 kts | 64° |
| 2026-05-07 22:33 | 39.21493 | -8.12990 | 19921 ft | 450 kts | 64° |
| 2026-05-07 22:33 | 39.22884 | -8.09353 | 20426 ft | 453 kts | 64° |
| 2026-05-07 22:33 | 39.24284 | -8.05683 | 20934 ft | 456 kts | 64° |
| 2026-05-07 22:34 | 39.25691 | -8.01993 | 21422 ft | 459 kts | 64° |
| 2026-05-07 22:34 | 39.27108 | -7.98269 | 21911 ft | 462 kts | 64° |
| 2026-05-07 22:34 | 39.28527 | -7.94531 | 22384 ft | 464 kts | 64° |
| 2026-05-07 22:34 | 39.29471 | -7.92040 | 22693 ft | 466 kts | 64° |
| 2026-05-07 22:35 | 39.31371 | -7.87035 | 23281 ft | 470 kts | 64° |
| 2026-05-07 22:35 | 39.32817 | -7.83221 | 23720 ft | 473 kts | 64° |
| 2026-05-07 22:35 | 39.34268 | -7.79389 | 24140 ft | 476 kts | 64° |
| 2026-05-07 22:35 | 39.35726 | -7.75531 | 24547 ft | 479 kts | 64° |
| 2026-05-07 22:36 | 39.37195 | -7.71639 | 24919 ft | 483 kts | 64° |
| 2026-05-07 22:36 | 39.38674 | -7.67711 | 25254 ft | 487 kts | 64° |
| 2026-05-07 22:36 | 39.39680 | -7.65039 | 25485 ft | 490 kts | 63° |
| 2026-05-07 22:36 | 39.41159 | -7.61106 | 25827 ft | 494 kts | 63° |
| 2026-05-07 22:37 | 39.42668 | -7.57087 | 26163 ft | 497 kts | 63° |
| 2026-05-07 22:37 | 39.44183 | -7.53047 | 26495 ft | 501 kts | 63° |
| 2026-05-07 22:37 | 39.45710 | -7.48969 | 26817 ft | 504 kts | 63° |
| 2026-05-07 22:37 | 39.47248 | -7.44856 | 27134 ft | 508 kts | 63° |
| 2026-05-07 22:38 | 39.48792 | -7.40720 | 27438 ft | 512 kts | 63° |
| 2026-05-07 22:38 | 39.50347 | -7.36550 | 27726 ft | 515 kts | 63° |
| 2026-05-07 22:38 | 39.51913 | -7.32344 | 28027 ft | 519 kts | 63° |
| 2026-05-07 22:38 | 39.53485 | -7.28119 | 28409 ft | 520 kts | 63° |
| 2026-05-07 22:39 | 39.55054 | -7.23890 | 28867 ft | 519 kts | 63° |
| 2026-05-07 22:39 | 39.56618 | -7.19671 | 29290 ft | 519 kts | 63° |
| 2026-05-07 22:39 | 39.58185 | -7.15434 | 29655 ft | 521 kts | 63° |
| 2026-05-07 22:39 | 39.59734 | -7.11245 | 30023 ft | 522 kts | 63° |
| 2026-05-07 22:40 | 39.61307 | -7.06984 | 30387 ft | 523 kts | 63° |
| 2026-05-07 22:40 | 39.62882 | -7.02710 | 30752 ft | 523 kts | 62° |
| 2026-05-07 22:40 | 39.64462 | -6.98418 | 31126 ft | 524 kts | 62° |
| 2026-05-07 22:40 | 39.66034 | -6.94137 | 31505 ft | 524 kts | 62° |
| 2026-05-07 22:41 | 39.67595 | -6.89863 | 31876 ft | 524 kts | 64° |
| 2026-05-07 22:41 | 39.68774 | -6.85360 | 32170 ft | 528 kts | 76° |
| 2026-05-07 22:41 | 39.69270 | -6.80621 | 32493 ft | 529 kts | 88° |
| 2026-05-07 22:41 | 39.69202 | -6.75848 | 32827 ft | 528 kts | 94° |
| 2026-05-07 22:42 | 39.68979 | -6.71080 | 33143 ft | 529 kts | 95° |
| 2026-05-07 22:42 | 39.68729 | -6.66304 | 33381 ft | 531 kts | 94° |
| 2026-05-07 22:42 | 39.68487 | -6.61503 | 33611 ft | 533 kts | 94° |
| 2026-05-07 22:42 | 39.68260 | -6.56685 | 33840 ft | 535 kts | 94° |
| 2026-05-07 22:43 | 39.68048 | -6.51902 | 34071 ft | 537 kts | 94° |
| 2026-05-07 22:43 | 39.67840 | -6.47048 | 34295 ft | 539 kts | 93° |
| 2026-05-07 22:43 | 39.67635 | -6.42163 | 34530 ft | 541 kts | 93° |
| 2026-05-07 22:43 | 39.67430 | -6.37281 | 34773 ft | 542 kts | 93° |
| 2026-05-07 22:44 | 39.67224 | -6.32376 | 34903 ft | 544 kts | 93° |
| 2026-05-07 22:44 | 39.66802 | -6.22437 | 34906 ft | 555 kts | 93° |
| 2026-05-07 22:45 | 39.66364 | -6.12377 | 34908 ft | 558 kts | 93° |
| 2026-05-07 22:45 | 39.65916 | -6.02309 | 34909 ft | 558 kts | 93° |
| 2026-05-07 22:46 | 39.65459 | -5.92240 | 34908 ft | 558 kts | 93° |
| 2026-05-07 22:46 | 39.64996 | -5.82227 | 34908 ft | 559 kts | 93° |
| 2026-05-07 22:47 | 39.64523 | -5.72140 | 34913 ft | 559 kts | 93° |
| 2026-05-07 22:47 | 39.64040 | -5.62040 | 34917 ft | 560 kts | 93° |
| 2026-05-07 22:48 | 39.63547 | -5.51934 | 34916 ft | 560 kts | 93° |
| 2026-05-07 22:48 | 39.63045 | -5.41835 | 34923 ft | 560 kts | 94° |
| 2026-05-07 22:49 | 39.62534 | -5.31745 | 34935 ft | 560 kts | 94° |
| 2026-05-07 22:49 | 39.62015 | -5.21640 | 34945 ft | 561 kts | 94° |
| 2026-05-07 22:50 | 39.61489 | -5.11596 | 34948 ft | 561 kts | 93° |
| 2026-05-07 22:50 | 39.60950 | -5.01480 | 34946 ft | 562 kts | 93° |
| 2026-05-07 22:51 | 39.60403 | -4.91353 | 34953 ft | 562 kts | 93° |
| 2026-05-07 22:51 | 39.59847 | -4.81216 | 34951 ft | 563 kts | 93° |
| 2026-05-07 22:52 | 39.59279 | -4.71067 | 34964 ft | 563 kts | 93° |
| 2026-05-07 22:52 | 39.58707 | -4.60927 | 34976 ft | 564 kts | 93° |
| 2026-05-07 22:53 | 39.58122 | -4.50780 | 34977 ft | 564 kts | 93° |
| 2026-05-07 22:53 | 39.57527 | -4.40618 | 34980 ft | 564 kts | 93° |
| 2026-05-07 22:54 | 39.56925 | -4.30456 | 34983 ft | 564 kts | 93° |
| 2026-05-07 22:54 | 39.56316 | -4.20340 | 34988 ft | 564 kts | 93° |
| 2026-05-07 22:55 | 39.55695 | -4.10169 | 34989 ft | 565 kts | 93° |
| 2026-05-07 22:55 | 39.55066 | -3.99996 | 34991 ft | 565 kts | 93° |
| 2026-05-07 22:56 | 39.54425 | -3.89822 | 34992 ft | 565 kts | 93° |
| 2026-05-07 22:56 | 39.53783 | -3.79727 | 35001 ft | 565 kts | 93° |
| 2026-05-07 22:57 | 39.53128 | -3.69566 | 34996 ft | 564 kts | 93° |
| 2026-05-07 22:57 | 39.52464 | -3.59409 | 34996 ft | 565 kts | 93° |
| 2026-05-07 22:58 | 39.51789 | -3.49260 | 35008 ft | 565 kts | 93° |
| 2026-05-07 22:58 | 39.51108 | -3.39113 | 35004 ft | 564 kts | 94° |
| 2026-05-07 22:59 | 39.50417 | -3.28975 | 35005 ft | 564 kts | 94° |
| 2026-05-07 22:59 | 39.49718 | -3.18854 | 35007 ft | 563 kts | 94° |
| 2026-05-07 23:00 | 39.49012 | -3.08737 | 35012 ft | 563 kts | 94° |
| 2026-05-07 23:00 | 39.48295 | -2.98625 | 35015 ft | 563 kts | 94° |
| 2026-05-07 23:01 | 39.47572 | -2.88533 | 35019 ft | 561 kts | 94° |
| 2026-05-07 23:01 | 39.46845 | -2.78498 | 35025 ft | 561 kts | 94° |
| 2026-05-07 23:02 | 39.46106 | -2.68441 | 35020 ft | 560 kts | 95° |
| 2026-05-07 23:02 | 39.45360 | -2.58405 | 35018 ft | 559 kts | 95° |
| 2026-05-07 23:03 | 39.44605 | -2.48363 | 35026 ft | 558 kts | 95° |
| 2026-05-07 23:03 | 39.43845 | -2.38356 | 35026 ft | 557 kts | 95° |
| 2026-05-07 23:04 | 39.43076 | -2.28368 | 35029 ft | 557 kts | 95° |
| 2026-05-07 23:04 | 39.42300 | -2.18397 | 35030 ft | 556 kts | 95° |
| 2026-05-07 23:05 | 39.41516 | -2.08431 | 35028 ft | 556 kts | 95° |
| 2026-05-07 23:05 | 39.40729 | -1.98534 | 35027 ft | 556 kts | 95° |
| 2026-05-07 23:06 | 39.39929 | -1.88578 | 35029 ft | 555 kts | 95° |
| 2026-05-07 23:06 | 39.39120 | -1.78629 | 35026 ft | 555 kts | 95° |
| 2026-05-07 23:07 | 39.38302 | -1.68686 | 35028 ft | 556 kts | 95° |
| 2026-05-07 23:07 | 39.37474 | -1.58713 | 35030 ft | 556 kts | 95° |
| 2026-05-07 23:08 | 39.36639 | -1.48759 | 35031 ft | 557 kts | 95° |
| 2026-05-07 23:08 | 39.35795 | -1.38800 | 35025 ft | 557 kts | 96° |
| 2026-05-07 23:09 | 39.34941 | -1.28830 | 35026 ft | 557 kts | 96° |
| 2026-05-07 23:09 | 39.34082 | -1.18902 | 35027 ft | 558 kts | 96° |
| 2026-05-07 23:10 | 39.33210 | -1.08932 | 35028 ft | 558 kts | 96° |
| 2026-05-07 23:10 | 39.32329 | -0.98950 | 35028 ft | 559 kts | 96° |
| 2026-05-07 23:11 | 39.31437 | -0.88941 | 35029 ft | 559 kts | 96° |
| 2026-05-07 23:11 | 39.30537 | -0.78949 | 35027 ft | 559 kts | 96° |
| 2026-05-07 23:12 | 39.29625 | -0.68948 | 35027 ft | 560 kts | 96° |
| 2026-05-07 23:12 | 39.28655 | -0.58958 | 35024 ft | 560 kts | 99° |
| 2026-05-07 23:13 | 39.26970 | -0.49127 | 35025 ft | 560 kts | 107° |
| 2026-05-07 23:13 | 39.24616 | -0.39589 | 35029 ft | 560 kts | 109° |
| 2026-05-07 23:14 | 39.22176 | -0.30029 | 35027 ft | 561 kts | 109° |
| 2026-05-07 23:14 | 39.19742 | -0.20440 | 35026 ft | 561 kts | 109° |
| 2026-05-07 23:15 | 39.17318 | -0.10870 | 35024 ft | 561 kts | 109° |
| 2026-05-07 23:15 | 39.14903 | -0.01352 | 35021 ft | 561 kts | 109° |
| 2026-05-07 23:16 | 39.12478 | 0.08184 | 35021 ft | 556 kts | 110° |
| 2026-05-07 23:16 | 39.11288 | 0.12877 | 35019 ft | 545 kts | 110° |
| 2026-05-07 23:16 | 39.10110 | 0.17484 | 35016 ft | 535 kts | 110° |
| 2026-05-07 23:17 | 39.07776 | 0.26550 | 35005 ft | 531 kts | 110° |
| 2026-05-07 23:17 | 39.05445 | 0.35579 | 35005 ft | 531 kts | 110° |
| 2026-05-07 23:18 | 39.03105 | 0.44620 | 35000 ft | 531 kts | 110° |
| 2026-05-07 23:18 | 39.00764 | 0.53642 | 34988 ft | 531 kts | 110° |
| 2026-05-07 23:19 | 38.98417 | 0.62655 | 34982 ft | 530 kts | 111° |
| 2026-05-07 23:19 | 38.96080 | 0.71595 | 34976 ft | 530 kts | 111° |
| 2026-05-07 23:20 | 38.93723 | 0.80584 | 34974 ft | 529 kts | 111° |
| 2026-05-07 23:20 | 38.91362 | 0.89547 | 34966 ft | 528 kts | 111° |
| 2026-05-07 23:21 | 38.89002 | 0.98481 | 34962 ft | 527 kts | 111° |
| 2026-05-07 23:21 | 38.87042 | 1.05877 | 34955 ft | 526 kts | 111° |
| 2026-05-07 23:22 | 38.84290 | 1.16225 | 34953 ft | 525 kts | 112° |
| 2026-05-07 23:22 | 38.81918 | 1.25107 | 34953 ft | 524 kts | 112° |
| 2026-05-07 23:23 | 38.79947 | 1.32471 | 34955 ft | 524 kts | 112° |
| 2026-05-07 23:23 | 38.77570 | 1.41316 | 34953 ft | 523 kts | 112° |
| 2026-05-07 23:24 | 38.75194 | 1.50123 | 34956 ft | 522 kts | 112° |
| 2026-05-07 23:24 | 38.72814 | 1.58919 | 34959 ft | 521 kts | 112° |
| 2026-05-07 23:25 | 38.70430 | 1.67705 | 34955 ft | 521 kts | 112° |
| 2026-05-07 23:25 | 38.68039 | 1.76479 | 34955 ft | 521 kts | 112° |
| 2026-05-07 23:26 | 38.65656 | 1.85194 | 34955 ft | 520 kts | 112° |
| 2026-05-07 23:26 | 38.63256 | 1.93943 | 34963 ft | 521 kts | 113° |
| 2026-05-07 23:27 | 38.59648 | 2.07053 | 34965 ft | 518 kts | 113° |
| 2026-05-07 23:27 | 38.57246 | 2.15738 | 34971 ft | 517 kts | 113° |
| 2026-05-07 23:28 | 38.54851 | 2.24361 | 34971 ft | 517 kts | 114° |
| 2026-05-07 23:28 | 38.52437 | 2.33026 | 34973 ft | 517 kts | 114° |
| 2026-05-07 23:29 | 38.50015 | 2.41691 | 34977 ft | 517 kts | 114° |
| 2026-05-07 23:29 | 38.47593 | 2.50337 | 34982 ft | 516 kts | 114° |
| 2026-05-07 23:30 | 38.45166 | 2.58967 | 34982 ft | 515 kts | 114° |
| 2026-05-07 23:30 | 38.42734 | 2.67583 | 34982 ft | 515 kts | 114° |
| 2026-05-07 23:31 | 38.40297 | 2.76196 | 34986 ft | 514 kts | 114° |
| 2026-05-07 23:31 | 38.37858 | 2.84781 | 35010 ft | 513 kts | 115° |
| 2026-05-07 23:32 | 38.35432 | 2.93299 | 35012 ft | 513 kts | 115° |
| 2026-05-07 23:32 | 38.32985 | 3.01863 | 35013 ft | 512 kts | 115° |
| 2026-05-07 23:33 | 38.30538 | 3.10390 | 35010 ft | 511 kts | 115° |
| 2026-05-07 23:33 | 38.28088 | 3.18905 | 35014 ft | 510 kts | 115° |
| 2026-05-07 23:34 | 38.25636 | 3.27395 | 35011 ft | 510 kts | 115° |
| 2026-05-07 23:34 | 38.23199 | 3.35807 | 35006 ft | 510 kts | 116° |
| 2026-05-07 23:35 | 38.20713 | 3.44314 | 35003 ft | 508 kts | 116° |
| 2026-05-07 23:35 | 38.18120 | 3.52682 | 35001 ft | 507 kts | 117° |
| 2026-05-07 23:36 | 38.15517 | 3.60977 | 35006 ft | 507 kts | 117° |
| 2026-05-07 23:36 | 38.12908 | 3.69300 | 34996 ft | 507 kts | 117° |
| 2026-05-07 23:37 | 38.10292 | 3.77630 | 35001 ft | 507 kts | 117° |
| 2026-05-07 23:37 | 38.07671 | 3.85959 | 34998 ft | 507 kts | 117° |
| 2026-05-07 23:38 | 38.05045 | 3.94281 | 35004 ft | 507 kts | 117° |
| 2026-05-07 23:38 | 38.02419 | 4.02580 | 35003 ft | 507 kts | 117° |
| 2026-05-07 23:39 | 37.99780 | 4.10896 | 35001 ft | 507 kts | 117° |
| 2026-05-07 23:39 | 37.97141 | 4.19190 | 34986 ft | 507 kts | 117° |
| 2026-05-07 23:40 | 37.94495 | 4.27480 | 34999 ft | 507 kts | 118° |
| 2026-05-07 23:40 | 37.91855 | 4.35725 | 34997 ft | 507 kts | 118° |
| 2026-05-07 23:41 | 37.89192 | 4.44018 | 34984 ft | 508 kts | 118° |
| 2026-05-07 23:41 | 37.86517 | 4.52325 | 34987 ft | 509 kts | 118° |
| 2026-05-07 23:42 | 37.83822 | 4.60666 | 35178 ft | 512 kts | 118° |
| 2026-05-07 23:42 | 37.82471 | 4.64846 | 35461 ft | 512 kts | 118° |
| 2026-05-07 23:42 | 37.81125 | 4.69003 | 35727 ft | 511 kts | 118° |
| 2026-05-07 23:43 | 37.79770 | 4.73185 | 35950 ft | 511 kts | 119° |
| 2026-05-07 23:43 | 37.78416 | 4.77347 | 36123 ft | 513 kts | 119° |
| 2026-05-07 23:43 | 37.77054 | 4.81529 | 36312 ft | 514 kts | 119° |
| 2026-05-07 23:43 | 37.75687 | 4.85717 | 36455 ft | 515 kts | 119° |
| 2026-05-07 23:44 | 37.74318 | 4.89907 | 36608 ft | 516 kts | 120° |
| 2026-05-07 23:44 | 37.72947 | 4.94098 | 36807 ft | 516 kts | 120° |
| 2026-05-07 23:44 | 37.71575 | 4.98286 | 36977 ft | 514 kts | 120° |
| 2026-05-07 23:44 | 37.70256 | 5.02400 | 36979 ft | 512 kts | 118° |
| 2026-05-07 23:45 | 37.67753 | 5.10826 | 36977 ft | 511 kts | 118° |
| 2026-05-07 23:45 | 37.65275 | 5.19248 | 36975 ft | 511 kts | 118° |
| 2026-05-07 23:46 | 37.62774 | 5.27658 | 36974 ft | 511 kts | 118° |
| 2026-05-07 23:46 | 37.60254 | 5.36072 | 36974 ft | 511 kts | 118° |
| 2026-05-07 23:47 | 37.57730 | 5.44463 | 36974 ft | 511 kts | 118° |
| 2026-05-07 23:47 | 37.55212 | 5.52805 | 36974 ft | 511 kts | 118° |
| 2026-05-07 23:48 | 37.52672 | 5.61198 | 36976 ft | 511 kts | 118° |
| 2026-05-07 23:48 | 37.50132 | 5.69571 | 36977 ft | 510 kts | 119° |
| 2026-05-07 23:49 | 37.47585 | 5.77938 | 36974 ft | 510 kts | 119° |
| 2026-05-07 23:49 | 37.45030 | 5.86302 | 36974 ft | 510 kts | 119° |
| 2026-05-07 23:50 | 37.42474 | 5.94646 | 36977 ft | 510 kts | 119° |
| 2026-05-07 23:50 | 37.39925 | 6.02942 | 36984 ft | 511 kts | 119° |
| 2026-05-07 23:51 | 37.37349 | 6.11309 | 36984 ft | 513 kts | 119° |
| 2026-05-07 23:51 | 37.34757 | 6.19698 | 36983 ft | 513 kts | 120° |
| 2026-05-07 23:52 | 37.32159 | 6.28075 | 36983 ft | 514 kts | 120° |
| 2026-05-07 23:52 | 37.29553 | 6.36461 | 36988 ft | 515 kts | 120° |
| 2026-05-07 23:53 | 37.26938 | 6.44851 | 36983 ft | 516 kts | 120° |
| 2026-05-07 23:53 | 37.24327 | 6.53201 | 36982 ft | 516 kts | 120° |
| 2026-05-07 23:54 | 37.21693 | 6.61603 | 36979 ft | 517 kts | 120° |
| 2026-05-07 23:54 | 37.19043 | 6.70027 | 36971 ft | 518 kts | 120° |
| 2026-05-07 23:55 | 37.16387 | 6.78446 | 36963 ft | 518 kts | 120° |
| 2026-05-07 23:55 | 37.13720 | 6.86870 | 36964 ft | 519 kts | 120° |
| 2026-05-07 23:56 | 37.11061 | 6.95257 | 36959 ft | 519 kts | 120° |
| 2026-05-07 23:56 | 37.08385 | 7.03668 | 36956 ft | 520 kts | 120° |
| 2026-05-07 23:57 | 37.05693 | 7.12098 | 36954 ft | 521 kts | 120° |
| 2026-05-07 23:57 | 37.02992 | 7.20535 | 36948 ft | 521 kts | 120° |
| 2026-05-07 23:58 | 37.00286 | 7.28966 | 36944 ft | 521 kts | 121° |
| 2026-05-07 23:58 | 36.97590 | 7.37343 | 36938 ft | 521 kts | 121° |
| 2026-05-07 23:59 | 36.94864 | 7.45780 | 36934 ft | 523 kts | 121° |
| 2026-05-07 23:59 | 36.92131 | 7.54216 | 36930 ft | 524 kts | 121° |
| 2026-05-08 00:00 | 36.89381 | 7.62681 | 36919 ft | 524 kts | 121° |
| 2026-05-08 00:00 | 36.86585 | 7.71103 | 36927 ft | 521 kts | 124° |
| 2026-05-08 00:01 | 36.83236 | 7.79038 | 36929 ft | 511 kts | 131° |
| 2026-05-08 00:01 | 36.79225 | 7.86243 | 36927 ft | 499 kts | 139° |
| 2026-05-08 00:02 | 36.74660 | 7.92674 | 36910 ft | 490 kts | 145° |
| 2026-05-08 00:02 | 36.69908 | 7.98794 | 36931 ft | 491 kts | 146° |
| 2026-05-08 00:03 | 36.65641 | 8.05554 | 36910 ft | 519 kts | 129° |
| 2026-05-08 00:03 | 36.64164 | 8.09752 | 36913 ft | 537 kts | 117° |
| 2026-05-08 00:03 | 36.63222 | 8.14313 | 36937 ft | 548 kts | 110° |
| 2026-05-08 00:04 | 36.61777 | 8.23694 | 36917 ft | 549 kts | 109° |
| 2026-05-08 00:04 | 36.60345 | 8.33041 | 36921 ft | 549 kts | 110° |
| 2026-05-08 00:05 | 36.58848 | 8.42371 | 36908 ft | 548 kts | 110° |
| 2026-05-08 00:05 | 36.57325 | 8.51665 | 36912 ft | 547 kts | 110° |
| 2026-05-08 00:06 | 36.55786 | 8.60960 | 36908 ft | 548 kts | 110° |
| 2026-05-08 00:06 | 36.54240 | 8.70264 | 36915 ft | 548 kts | 110° |
| 2026-05-08 00:07 | 36.52698 | 8.79498 | 36927 ft | 547 kts | 110° |
| 2026-05-08 00:07 | 36.51140 | 8.88784 | 36917 ft | 547 kts | 110° |
| 2026-05-08 00:08 | 36.49840 | 8.96492 | 36923 ft | 546 kts | 110° |
| 2026-05-08 00:08 | 36.48271 | 9.05744 | 36922 ft | 547 kts | 110° |
| 2026-05-08 00:09 | 36.46691 | 9.15027 | 36918 ft | 547 kts | 110° |
| 2026-05-08 00:09 | 36.45307 | 9.23115 | 36928 ft | 548 kts | 110° |
| 2026-05-08 00:10 | 36.43711 | 9.32401 | 36928 ft | 548 kts | 110° |
| 2026-05-08 00:10 | 36.42120 | 9.41621 | 36928 ft | 548 kts | 110° |
| 2026-05-08 00:11 | 36.40510 | 9.50893 | 36916 ft | 549 kts | 110° |
| 2026-05-08 00:11 | 36.38892 | 9.60180 | 36929 ft | 549 kts | 110° |
| 2026-05-08 00:12 | 36.37265 | 9.69462 | 36929 ft | 550 kts | 110° |
| 2026-05-08 00:12 | 36.35628 | 9.78767 | 36928 ft | 551 kts | 110° |
| 2026-05-08 00:13 | 36.33992 | 9.88019 | 36930 ft | 550 kts | 110° |
| 2026-05-08 00:13 | 36.32349 | 9.97259 | 36911 ft | 544 kts | 109° |
| 2026-05-08 00:14 | 36.30717 | 10.06421 | 36929 ft | 543 kts | 110° |
| 2026-05-08 00:14 | 36.29072 | 10.15582 | 36933 ft | 543 kts | 110° |
| 2026-05-08 00:15 | 36.27422 | 10.24730 | 36929 ft | 543 kts | 110° |
| 2026-05-08 00:15 | 36.25772 | 10.33826 | 36929 ft | 544 kts | 110° |
| 2026-05-08 00:16 | 36.24107 | 10.42984 | 36928 ft | 542 kts | 110° |
| 2026-05-08 00:16 | 36.22433 | 10.52146 | 36929 ft | 542 kts | 110° |
| 2026-05-08 00:17 | 36.20747 | 10.61319 | 36930 ft | 543 kts | 110° |
| 2026-05-08 00:17 | 36.19060 | 10.70459 | 36929 ft | 543 kts | 110° |
| 2026-05-08 00:18 | 36.17371 | 10.79581 | 36928 ft | 543 kts | 110° |
| 2026-05-08 00:18 | 36.15682 | 10.88652 | 36919 ft | 544 kts | 110° |
| 2026-05-08 00:19 | 36.13975 | 10.97781 | 36909 ft | 544 kts | 110° |
| 2026-05-08 00:19 | 36.12257 | 11.06927 | 36920 ft | 546 kts | 110° |
| 2026-05-08 00:20 | 36.10527 | 11.16089 | 36923 ft | 547 kts | 110° |
| 2026-05-08 00:20 | 36.08787 | 11.25280 | 36916 ft | 547 kts | 110° |
| 2026-05-08 00:21 | 36.07038 | 11.34461 | 36923 ft | 548 kts | 110° |
| 2026-05-08 00:21 | 36.05277 | 11.43663 | 36923 ft | 550 kts | 110° |
| 2026-05-08 00:22 | 36.03511 | 11.52830 | 36916 ft | 551 kts | 110° |
| 2026-05-08 00:22 | 36.01702 | 11.62039 | 36926 ft | 551 kts | 111° |
| 2026-05-08 00:23 | 35.99868 | 11.71297 | 36914 ft | 552 kts | 111° |
| 2026-05-08 00:23 | 35.98031 | 11.80531 | 36928 ft | 553 kts | 111° |
| 2026-05-08 00:24 | 35.96185 | 11.89786 | 36928 ft | 554 kts | 111° |
| 2026-05-08 00:24 | 35.94336 | 11.99017 | 36928 ft | 553 kts | 111° |
| 2026-05-08 00:25 | 35.92480 | 12.08247 | 36929 ft | 553 kts | 111° |
| 2026-05-08 00:25 | 35.90615 | 12.17476 | 36927 ft | 553 kts | 111° |
| 2026-05-08 00:26 | 35.88742 | 12.26704 | 36928 ft | 553 kts | 111° |
| 2026-05-08 00:26 | 35.86879 | 12.35844 | 36928 ft | 553 kts | 111° |
| 2026-05-08 00:27 | 35.84996 | 12.45051 | 36928 ft | 552 kts | 111° |
| 2026-05-08 00:27 | 35.83106 | 12.54241 | 36917 ft | 552 kts | 111° |
| 2026-05-08 00:28 | 35.81207 | 12.63435 | 36918 ft | 552 kts | 111° |
| 2026-05-08 00:28 | 35.79304 | 12.72627 | 36917 ft | 551 kts | 111° |
| 2026-05-08 00:29 | 35.77398 | 12.81789 | 36914 ft | 550 kts | 111° |
| 2026-05-08 00:29 | 35.75486 | 12.90933 | 36914 ft | 551 kts | 111° |
| 2026-05-08 00:30 | 35.73568 | 13.00078 | 36922 ft | 551 kts | 111° |
| 2026-05-08 00:30 | 35.71657 | 13.09157 | 36924 ft | 550 kts | 111° |
| 2026-05-08 00:31 | 35.69727 | 13.18274 | 36920 ft | 550 kts | 111° |
| 2026-05-08 00:31 | 35.67790 | 13.27402 | 36921 ft | 550 kts | 111° |
| 2026-05-08 00:32 | 35.65845 | 13.36523 | 36917 ft | 550 kts | 111° |
| 2026-05-08 00:32 | 35.63896 | 13.45634 | 36916 ft | 550 kts | 111° |
| 2026-05-08 00:33 | 35.61939 | 13.54739 | 36903 ft | 549 kts | 111° |
| 2026-05-08 00:33 | 35.59976 | 13.63837 | 36896 ft | 549 kts | 111° |
| 2026-05-08 00:34 | 35.58018 | 13.72875 | 36896 ft | 549 kts | 111° |
| 2026-05-08 00:34 | 35.56042 | 13.81957 | 36895 ft | 549 kts | 111° |
| 2026-05-08 00:35 | 35.54062 | 13.91025 | 36891 ft | 549 kts | 111° |
| 2026-05-08 00:35 | 35.52073 | 14.00100 | 36885 ft | 549 kts | 111° |
| 2026-05-08 00:36 | 35.50077 | 14.09154 | 36883 ft | 549 kts | 111° |
| 2026-05-08 00:36 | 35.48078 | 14.18203 | 36880 ft | 548 kts | 111° |
| 2026-05-08 00:37 | 35.46072 | 14.27250 | 36877 ft | 548 kts | 111° |
| 2026-05-08 00:38 | 35.43052 | 14.40803 | 36872 ft | 548 kts | 111° |
| 2026-05-08 00:38 | 35.41029 | 14.49825 | 36874 ft | 548 kts | 111° |
| 2026-05-08 00:39 | 35.39065 | 14.58797 | 36873 ft | 547 kts | 110° |
| 2026-05-08 00:39 | 35.37113 | 14.67844 | 36873 ft | 547 kts | 110° |
| 2026-05-08 00:40 | 35.35155 | 14.76867 | 36882 ft | 546 kts | 110° |
| 2026-05-08 00:40 | 35.33187 | 14.85873 | 36882 ft | 546 kts | 110° |
| 2026-05-08 00:41 | 35.31215 | 14.94864 | 36882 ft | 545 kts | 110° |
| 2026-05-08 00:41 | 35.29249 | 15.03784 | 36881 ft | 545 kts | 110° |
| 2026-05-08 00:42 | 35.27265 | 15.12752 | 36878 ft | 545 kts | 109° |
| 2026-05-08 00:42 | 35.25274 | 15.21717 | 36883 ft | 544 kts | 109° |
| 2026-05-08 00:43 | 35.23276 | 15.30687 | 36884 ft | 544 kts | 109° |
| 2026-05-08 00:43 | 35.21276 | 15.39624 | 36883 ft | 544 kts | 109° |
| 2026-05-08 00:44 | 35.19271 | 15.48554 | 36882 ft | 544 kts | 109° |
| 2026-05-08 00:44 | 35.17270 | 15.57431 | 36880 ft | 543 kts | 109° |
| 2026-05-08 00:45 | 35.15254 | 15.66342 | 36882 ft | 543 kts | 109° |
| 2026-05-08 00:45 | 35.13227 | 15.75265 | 36883 ft | 543 kts | 109° |
| 2026-05-08 00:46 | 35.11198 | 15.84171 | 36883 ft | 543 kts | 109° |
| 2026-05-08 00:46 | 35.09177 | 15.93002 | 36885 ft | 542 kts | 109° |
| 2026-05-08 00:47 | 35.07140 | 16.01875 | 36890 ft | 542 kts | 109° |
| 2026-05-08 00:47 | 35.05091 | 16.10740 | 36892 ft | 541 kts | 109° |
| 2026-05-08 00:48 | 35.03045 | 16.19599 | 36894 ft | 541 kts | 109° |
| 2026-05-08 00:48 | 35.00994 | 16.28442 | 36888 ft | 540 kts | 109° |
| 2026-05-08 00:49 | 34.98932 | 16.37293 | 36897 ft | 540 kts | 109° |
| 2026-05-08 00:49 | 34.96870 | 16.46111 | 36903 ft | 540 kts | 109° |
| 2026-05-08 00:50 | 34.94798 | 16.54938 | 36912 ft | 540 kts | 109° |
| 2026-05-08 00:50 | 34.92719 | 16.63762 | 36909 ft | 540 kts | 109° |
| 2026-05-08 00:51 | 34.90651 | 16.72513 | 36909 ft | 540 kts | 109° |
| 2026-05-08 00:51 | 34.88562 | 16.81323 | 36913 ft | 540 kts | 109° |
| 2026-05-08 00:52 | 34.86470 | 16.90110 | 36907 ft | 540 kts | 109° |
| 2026-05-08 00:52 | 34.84370 | 16.98899 | 36922 ft | 539 kts | 109° |
| 2026-05-08 00:53 | 34.82269 | 17.07659 | 36917 ft | 539 kts | 109° |
| 2026-05-08 00:53 | 34.80514 | 17.14957 | 36933 ft | 539 kts | 109° |
| 2026-05-08 00:54 | 34.78401 | 17.23719 | 36944 ft | 539 kts | 109° |
| 2026-05-08 00:54 | 34.76277 | 17.32492 | 36947 ft | 539 kts | 109° |
| 2026-05-08 00:55 | 34.74150 | 17.41245 | 36947 ft | 538 kts | 109° |
| 2026-05-08 00:55 | 34.72019 | 17.49982 | 36949 ft | 538 kts | 109° |
| 2026-05-08 00:56 | 34.69881 | 17.58723 | 36957 ft | 538 kts | 109° |
| 2026-05-08 00:56 | 34.67738 | 17.67455 | 36964 ft | 538 kts | 109° |
| 2026-05-08 00:57 | 34.65590 | 17.76178 | 36965 ft | 538 kts | 109° |
| 2026-05-08 00:57 | 34.63452 | 17.84824 | 36965 ft | 537 kts | 109° |
| 2026-05-08 00:58 | 34.61294 | 17.93531 | 36968 ft | 537 kts | 110° |
| 2026-05-08 00:58 | 34.59133 | 18.02216 | 36973 ft | 537 kts | 110° |
| 2026-05-08 00:59 | 34.56957 | 18.10912 | 36978 ft | 537 kts | 109° |
| 2026-05-08 00:59 | 34.54783 | 18.19598 | 36974 ft | 537 kts | 109° |
| 2026-05-08 01:00 | 34.52600 | 18.28290 | 36976 ft | 537 kts | 109° |
| 2026-05-08 01:00 | 34.50428 | 18.36904 | 36985 ft | 537 kts | 109° |
| 2026-05-08 01:01 | 34.48233 | 18.45574 | 36987 ft | 537 kts | 109° |
| 2026-05-08 01:01 | 34.46033 | 18.54239 | 36984 ft | 537 kts | 109° |
| 2026-05-08 01:02 | 34.43827 | 18.62899 | 36986 ft | 537 kts | 109° |
| 2026-05-08 01:02 | 34.41613 | 18.71563 | 36991 ft | 537 kts | 109° |
| 2026-05-08 01:03 | 34.39393 | 18.80220 | 36993 ft | 537 kts | 109° |
| 2026-05-08 01:03 | 34.37167 | 18.88875 | 36993 ft | 537 kts | 109° |
| 2026-05-08 01:04 | 34.34931 | 18.97533 | 36993 ft | 537 kts | 109° |
| 2026-05-08 01:04 | 34.32379 | 19.06026 | 37001 ft | 536 kts | 116° |
| 2026-05-08 01:05 | 34.29204 | 19.14171 | 37002 ft | 534 kts | 118° |
| 2026-05-08 01:05 | 34.25964 | 19.22207 | 37002 ft | 534 kts | 118° |
| 2026-05-08 01:06 | 34.22707 | 19.30296 | 37002 ft | 534 kts | 118° |
| 2026-05-08 01:06 | 34.19458 | 19.38378 | 37002 ft | 534 kts | 118° |
| 2026-05-08 01:07 | 34.16203 | 19.46462 | 37008 ft | 534 kts | 118° |
| 2026-05-08 01:07 | 34.12945 | 19.54536 | 37011 ft | 534 kts | 117° |
| 2026-05-08 01:08 | 34.09677 | 19.62614 | 37012 ft | 533 kts | 117° |
| 2026-05-08 01:08 | 34.06413 | 19.70665 | 37019 ft | 533 kts | 117° |
| 2026-05-08 01:09 | 34.03139 | 19.78721 | 37022 ft | 533 kts | 117° |
| 2026-05-08 01:09 | 33.99887 | 19.86703 | 37020 ft | 534 kts | 117° |
| 2026-05-08 01:10 | 33.96603 | 19.94744 | 37022 ft | 534 kts | 117° |
| 2026-05-08 01:10 | 33.93319 | 20.02769 | 37047 ft | 534 kts | 117° |
| 2026-05-08 01:11 | 33.90022 | 20.10802 | 37051 ft | 533 kts | 117° |
| 2026-05-08 01:11 | 33.86731 | 20.18805 | 37049 ft | 533 kts | 117° |
| 2026-05-08 01:12 | 33.83434 | 20.26802 | 37058 ft | 533 kts | 118° |
| 2026-05-08 01:12 | 33.80150 | 20.34747 | 37064 ft | 533 kts | 117° |
| 2026-05-08 01:13 | 33.76837 | 20.42744 | 37080 ft | 533 kts | 117° |
| 2026-05-08 01:13 | 33.73523 | 20.50724 | 37084 ft | 533 kts | 117° |
| 2026-05-08 01:14 | 33.70202 | 20.58708 | 37103 ft | 533 kts | 117° |
| 2026-05-08 01:14 | 33.66879 | 20.66676 | 37104 ft | 533 kts | 118° |
| 2026-05-08 01:15 | 33.63553 | 20.74633 | 37104 ft | 533 kts | 118° |
| 2026-05-08 01:15 | 33.60215 | 20.82595 | 37100 ft | 533 kts | 118° |
| 2026-05-08 01:16 | 33.56878 | 20.90544 | 37100 ft | 533 kts | 118° |
| 2026-05-08 01:16 | 33.53527 | 20.98506 | 37111 ft | 533 kts | 118° |
| 2026-05-08 01:17 | 33.50183 | 21.06435 | 37113 ft | 533 kts | 118° |
| 2026-05-08 01:17 | 33.46847 | 21.14338 | 37113 ft | 533 kts | 118° |
| 2026-05-08 01:18 | 33.43487 | 21.22278 | 37114 ft | 533 kts | 118° |
| 2026-05-08 01:18 | 33.40120 | 21.30214 | 37113 ft | 533 kts | 118° |
| 2026-05-08 01:19 | 33.36751 | 21.38138 | 37114 ft | 533 kts | 118° |
| 2026-05-08 01:19 | 33.33381 | 21.46045 | 37119 ft | 533 kts | 118° |
| 2026-05-08 01:20 | 33.30001 | 21.53959 | 37124 ft | 533 kts | 118° |
| 2026-05-08 01:20 | 33.26638 | 21.61812 | 37124 ft | 533 kts | 118° |
| 2026-05-08 01:21 | 33.23251 | 21.69708 | 37123 ft | 534 kts | 118° |
| 2026-05-08 01:21 | 33.19850 | 21.77612 | 37121 ft | 533 kts | 118° |
| 2026-05-08 01:22 | 33.16452 | 21.85496 | 37120 ft | 533 kts | 118° |
| 2026-05-08 01:22 | 33.13046 | 21.93383 | 37108 ft | 533 kts | 118° |
| 2026-05-08 01:23 | 33.09644 | 22.01239 | 37106 ft | 533 kts | 118° |
| 2026-05-08 01:23 | 33.06226 | 22.09101 | 37106 ft | 534 kts | 117° |
| 2026-05-08 01:24 | 33.02827 | 22.16923 | 37106 ft | 534 kts | 117° |
| 2026-05-08 01:24 | 32.99405 | 22.24781 | 37101 ft | 534 kts | 117° |
| 2026-05-08 01:25 | 32.95970 | 22.32645 | 37102 ft | 534 kts | 117° |
| 2026-05-08 01:25 | 32.92536 | 22.40490 | 37110 ft | 534 kts | 117° |
| 2026-05-08 01:26 | 32.89094 | 22.48335 | 37098 ft | 534 kts | 117° |
| 2026-05-08 01:26 | 32.85646 | 22.56175 | 37104 ft | 533 kts | 117° |
| 2026-05-08 01:27 | 32.82203 | 22.63988 | 37108 ft | 533 kts | 117° |
| 2026-05-08 01:27 | 32.78777 | 22.71746 | 37115 ft | 532 kts | 117° |
| 2026-05-08 01:28 | 32.75327 | 22.79540 | 37109 ft | 532 kts | 117° |
| 2026-05-08 01:28 | 32.71871 | 22.87332 | 37110 ft | 533 kts | 117° |
| 2026-05-08 01:29 | 32.68402 | 22.95136 | 37111 ft | 533 kts | 117° |
| 2026-05-08 01:29 | 32.64932 | 23.02923 | 37117 ft | 533 kts | 117° |
| 2026-05-08 01:30 | 32.61457 | 23.10701 | 37125 ft | 533 kts | 117° |
| 2026-05-08 01:30 | 32.57976 | 23.18481 | 37129 ft | 533 kts | 117° |
| 2026-05-08 01:31 | 32.54495 | 23.26244 | 37137 ft | 532 kts | 117° |
| 2026-05-08 01:31 | 32.51032 | 23.33951 | 37138 ft | 532 kts | 117° |
| 2026-05-08 01:32 | 32.47546 | 23.41692 | 37141 ft | 532 kts | 117° |
| 2026-05-08 01:32 | 32.44051 | 23.49440 | 37141 ft | 532 kts | 117° |
| 2026-05-08 01:33 | 32.40559 | 23.57161 | 37140 ft | 531 kts | 116° |
| 2026-05-08 01:33 | 32.37057 | 23.64889 | 37141 ft | 531 kts | 116° |
| 2026-05-08 01:34 | 32.33560 | 23.72588 | 37147 ft | 531 kts | 116° |
| 2026-05-08 01:34 | 32.30084 | 23.80226 | 37150 ft | 530 kts | 116° |
| 2026-05-08 01:35 | 32.26579 | 23.87915 | 37148 ft | 530 kts | 116° |
| 2026-05-08 01:35 | 32.23070 | 23.95595 | 37156 ft | 530 kts | 116° |
| 2026-05-08 01:36 | 32.19563 | 24.03251 | 37155 ft | 530 kts | 116° |
| 2026-05-08 01:36 | 32.16048 | 24.10913 | 37158 ft | 530 kts | 116° |
| 2026-05-08 01:37 | 32.12523 | 24.18579 | 37157 ft | 530 kts | 116° |
| 2026-05-08 01:37 | 32.09022 | 24.26177 | 37146 ft | 530 kts | 116° |
| 2026-05-08 01:38 | 32.05492 | 24.33817 | 37141 ft | 530 kts | 116° |
| 2026-05-08 01:38 | 32.01955 | 24.41462 | 37149 ft | 530 kts | 116° |
| 2026-05-08 01:39 | 31.98417 | 24.49094 | 37150 ft | 530 kts | 116° |
| 2026-05-08 01:39 | 31.95471 | 24.55433 | 37151 ft | 530 kts | 116° |
| 2026-05-08 01:40 | 31.91925 | 24.63049 | 37150 ft | 530 kts | 116° |
| 2026-05-08 01:40 | 31.88376 | 24.70659 | 37150 ft | 530 kts | 117° |
| 2026-05-08 01:41 | 31.84818 | 24.78270 | 37149 ft | 529 kts | 116° |
| 2026-05-08 01:41 | 31.81263 | 24.85861 | 37149 ft | 529 kts | 116° |
| 2026-05-08 01:42 | 31.77704 | 24.93446 | 37150 ft | 530 kts | 116° |
| 2026-05-08 01:42 | 31.74132 | 25.01038 | 37150 ft | 530 kts | 116° |
| 2026-05-08 01:43 | 31.70867 | 25.08789 | 37148 ft | 527 kts | 110° |
| 2026-05-08 01:43 | 31.68430 | 25.16833 | 37153 ft | 524 kts | 102° |
| 2026-05-08 01:44 | 31.66839 | 25.25160 | 37159 ft | 519 kts | 95° |
| 2026-05-08 01:44 | 31.65826 | 25.33550 | 37159 ft | 518 kts | 93° |
| 2026-05-08 01:45 | 31.64835 | 25.41962 | 37160 ft | 519 kts | 93° |
| 2026-05-08 01:45 | 31.63819 | 25.50364 | 37168 ft | 519 kts | 93° |
| 2026-05-08 01:46 | 31.62787 | 25.58766 | 37163 ft | 519 kts | 93° |
| 2026-05-08 01:46 | 31.61748 | 25.67170 | 37170 ft | 519 kts | 93° |
| 2026-05-08 01:47 | 31.60704 | 25.75562 | 37163 ft | 519 kts | 93° |
| 2026-05-08 01:47 | 31.59652 | 25.83972 | 37165 ft | 520 kts | 93° |
| 2026-05-08 01:48 | 31.58063 | 25.96586 | 37163 ft | 520 kts | 93° |
| 2026-05-08 01:48 | 31.56692 | 26.04894 | 37172 ft | 523 kts | 98° |
| 2026-05-08 01:49 | 31.54982 | 26.13197 | 37163 ft | 523 kts | 99° |
| 2026-05-08 01:49 | 31.53252 | 26.21509 | 37165 ft | 523 kts | 99° |
| 2026-05-08 01:50 | 31.51526 | 26.29812 | 37172 ft | 523 kts | 99° |
| 2026-05-08 01:50 | 31.49799 | 26.38115 | 37163 ft | 523 kts | 99° |
| 2026-05-08 01:51 | 31.48069 | 26.46409 | 37165 ft | 522 kts | 99° |
| 2026-05-08 01:51 | 31.46337 | 26.54686 | 37171 ft | 522 kts | 99° |
| 2026-05-08 01:52 | 31.44601 | 26.62952 | 37165 ft | 522 kts | 99° |
| 2026-05-08 01:52 | 31.42858 | 26.71226 | 37166 ft | 522 kts | 99° |
| 2026-05-08 01:53 | 31.41122 | 26.79436 | 37169 ft | 522 kts | 99° |
| 2026-05-08 01:53 | 31.39369 | 26.87690 | 37171 ft | 521 kts | 99° |
| 2026-05-08 01:54 | 31.37613 | 26.95944 | 37171 ft | 521 kts | 99° |
| 2026-05-08 01:54 | 31.35854 | 27.04180 | 37169 ft | 521 kts | 99° |
| 2026-05-08 01:55 | 31.34040 | 27.12399 | 37172 ft | 522 kts | 102° |
| 2026-05-08 01:55 | 31.31600 | 27.20451 | 37166 ft | 526 kts | 109° |
| 2026-05-08 01:56 | 31.28357 | 27.28156 | 37171 ft | 529 kts | 116° |
| 2026-05-08 01:56 | 31.24381 | 27.35434 | 37168 ft | 532 kts | 121° |
| 2026-05-08 01:57 | 31.20223 | 27.42528 | 37170 ft | 532 kts | 121° |
| 2026-05-08 01:57 | 31.16053 | 27.49686 | 37165 ft | 531 kts | 121° |
| 2026-05-08 01:58 | 31.11893 | 27.56824 | 37171 ft | 531 kts | 122° |
| 2026-05-08 01:58 | 31.07668 | 27.63912 | 37163 ft | 531 kts | 122° |
| 2026-05-08 01:59 | 31.03429 | 27.70991 | 37160 ft | 531 kts | 122° |
| 2026-05-08 01:59 | 30.99190 | 27.78070 | 37160 ft | 531 kts | 122° |
| 2026-05-08 02:00 | 30.94978 | 27.85093 | 37155 ft | 531 kts | 122° |
| 2026-05-08 02:00 | 30.90738 | 27.92158 | 37153 ft | 531 kts | 122° |
| 2026-05-08 02:01 | 30.86492 | 27.99217 | 37151 ft | 531 kts | 122° |
| 2026-05-08 02:01 | 30.82249 | 28.06251 | 37150 ft | 531 kts | 122° |
| 2026-05-08 02:02 | 30.77997 | 28.13296 | 37141 ft | 531 kts | 121° |
| 2026-05-08 02:02 | 30.73744 | 28.20336 | 37141 ft | 532 kts | 122° |
| 2026-05-08 02:03 | 30.69508 | 28.27332 | 37141 ft | 532 kts | 122° |
| 2026-05-08 02:03 | 30.65243 | 28.34361 | 37140 ft | 532 kts | 122° |
| 2026-05-08 02:04 | 30.60967 | 28.41395 | 37141 ft | 532 kts | 122° |
| 2026-05-08 02:04 | 30.56692 | 28.48415 | 37140 ft | 532 kts | 122° |
| 2026-05-08 02:05 | 30.52409 | 28.55436 | 37141 ft | 532 kts | 122° |
| 2026-05-08 02:05 | 30.48122 | 28.62450 | 37141 ft | 532 kts | 122° |
| 2026-05-08 02:06 | 30.43830 | 28.69461 | 37141 ft | 533 kts | 122° |
| 2026-05-08 02:06 | 30.39559 | 28.76426 | 37139 ft | 533 kts | 122° |
| 2026-05-08 02:07 | 30.35250 | 28.83438 | 37139 ft | 534 kts | 121° |
| 2026-05-08 02:07 | 30.30936 | 28.90451 | 37138 ft | 535 kts | 121° |
| 2026-05-08 02:08 | 30.26612 | 28.97464 | 37133 ft | 535 kts | 121° |
| 2026-05-08 02:08 | 30.22277 | 29.04486 | 37132 ft | 536 kts | 121° |
| 2026-05-08 02:09 | 30.17932 | 29.11511 | 37130 ft | 537 kts | 121° |
| 2026-05-08 02:09 | 30.13596 | 29.18544 | 37131 ft | 537 kts | 121° |
| 2026-05-08 02:10 | 30.09281 | 29.25617 | 37131 ft | 538 kts | 120° |
| 2026-05-08 02:10 | 30.05004 | 29.32723 | 37140 ft | 539 kts | 120° |
| 2026-05-08 02:11 | 30.00710 | 29.39836 | 37139 ft | 539 kts | 120° |
| 2026-05-08 02:11 | 29.96400 | 29.46953 | 37142 ft | 539 kts | 120° |
| 2026-05-08 02:12 | 29.92096 | 29.54045 | 37141 ft | 539 kts | 120° |
| 2026-05-08 02:12 | 29.87816 | 29.61085 | 37140 ft | 540 kts | 120° |
| 2026-05-08 02:13 | 29.83497 | 29.68175 | 37118 ft | 540 kts | 120° |
| 2026-05-08 02:13 | 29.79164 | 29.75276 | 37109 ft | 541 kts | 120° |
| 2026-05-08 02:14 | 29.74834 | 29.82361 | 37106 ft | 541 kts | 120° |
| 2026-05-08 02:14 | 29.70486 | 29.89460 | 37106 ft | 542 kts | 120° |
| 2026-05-08 02:15 | 29.66132 | 29.96560 | 37103 ft | 541 kts | 120° |
| 2026-05-08 02:15 | 29.61774 | 30.03652 | 37105 ft | 541 kts | 120° |
| 2026-05-08 02:16 | 29.57423 | 30.10716 | 37097 ft | 541 kts | 120° |
| 2026-05-08 02:16 | 29.53093 | 30.17743 | 37097 ft | 541 kts | 120° |
| 2026-05-08 02:17 | 29.48737 | 30.24797 | 37099 ft | 540 kts | 120° |
| 2026-05-08 02:17 | 29.44376 | 30.31846 | 37098 ft | 541 kts | 120° |
| 2026-05-08 02:18 | 29.40247 | 30.39031 | 37093 ft | 536 kts | 114° |
| 2026-05-08 02:18 | 29.36883 | 30.46603 | 37087 ft | 529 kts | 107° |
| 2026-05-08 02:19 | 29.33928 | 30.54335 | 37094 ft | 529 kts | 107° |
| 2026-05-08 02:19 | 29.30979 | 30.62068 | 37097 ft | 529 kts | 107° |
| 2026-05-08 02:20 | 29.28028 | 30.69743 | 37099 ft | 529 kts | 107° |
| 2026-05-08 02:20 | 29.25045 | 30.77465 | 37088 ft | 529 kts | 107° |
| 2026-05-08 02:21 | 29.22057 | 30.85172 | 37098 ft | 529 kts | 107° |
| 2026-05-08 02:21 | 29.19065 | 30.92875 | 37101 ft | 529 kts | 107° |
| 2026-05-08 02:22 | 29.16073 | 31.00561 | 37096 ft | 529 kts | 107° |
| 2026-05-08 02:22 | 29.13072 | 31.08257 | 37082 ft | 529 kts | 107° |
| 2026-05-08 02:23 | 29.10575 | 31.14649 | 37077 ft | 529 kts | 107° |